createdAt,value
2022-12-18T00:00:01.014Z,-3.7
2022-12-18T00:10:00.645Z,-3.8
2022-12-18T00:20:00.684Z,-3.9
2022-12-18T00:30:00.617Z,-3.9
2022-12-18T00:40:00.804Z,-4.0
2022-12-18T00:50:00.593Z,-4.3
2022-12-18T01:00:00.653Z,-4.5
2022-12-18T01:10:00.627Z,-4.6
2022-12-18T01:20:00.629Z,-4.8
2022-12-18T01:30:00.730Z,-4.8
2022-12-18T01:40:00.637Z,-5.0
2022-12-18T01:50:00.656Z,-5.0
2022-12-18T02:00:00.674Z,-5.2
2022-12-18T02:10:00.618Z,-5.3
2022-12-18T02:20:00.626Z,-5.4
2022-12-18T02:30:00.669Z,-5.5
2022-12-18T02:40:00.647Z,-5.6
2022-12-18T02:50:00.611Z,-5.7
2022-12-18T03:00:00.629Z,-5.8
2022-12-18T03:10:00.632Z,-6.0
2022-12-18T03:20:00.651Z,-6.1
2022-12-18T03:30:00.687Z,-6.2
2022-12-18T03:40:00.612Z,-6.3
2022-12-18T03:50:00.616Z,-6.3
2022-12-18T04:00:00.622Z,-6.4
2022-12-18T04:10:00.626Z,-6.5
2022-12-18T04:20:00.597Z,-6.6
2022-12-18T04:30:00.692Z,-6.7
2022-12-18T04:40:00.646Z,-6.8
2022-12-18T04:50:00.660Z,-6.8
2022-12-18T05:00:00.686Z,-6.9
2022-12-18T05:10:00.636Z,-7.0
2022-12-18T05:20:00.647Z,-7.0
2022-12-18T05:30:00.686Z,-7.0
2022-12-18T05:40:00.618Z,-7.1
2022-12-18T05:50:00.681Z,-7.2
2022-12-18T06:00:00.627Z,-7.3
2022-12-18T06:10:00.592Z,-7.3
2022-12-18T06:20:00.635Z,-7.4
2022-12-18T06:30:00.675Z,-7.4
2022-12-18T06:40:00.635Z,-7.4
2022-12-18T06:50:00.621Z,-7.5
2022-12-18T07:00:00.641Z,-7.5
2022-12-18T07:10:00.780Z,-7.5
2022-12-18T07:20:00.650Z,-7.5
2022-12-18T07:30:00.664Z,-7.4
2022-12-18T07:40:00.608Z,-7.2
2022-12-18T07:50:00.647Z,-7.0
2022-12-18T08:00:00.757Z,-6.8
2022-12-18T08:10:00.621Z,-6.6
2022-12-18T08:20:00.667Z,-6.3
2022-12-18T08:30:00.688Z,-6.0
2022-12-18T08:40:00.644Z,-5.6
2022-12-18T08:50:00.620Z,-5.2
2022-12-18T09:00:00.756Z,-4.8
2022-12-18T09:10:00.631Z,-4.6
2022-12-18T09:20:00.615Z,-4.4
2022-12-18T09:30:00.690Z,-4.3
2022-12-18T09:40:00.632Z,-4.1
2022-12-18T09:50:00.329Z,-4.0
2022-12-18T10:00:00.331Z,-3.9
2022-12-18T10:10:00.556Z,-3.8
2022-12-18T10:20:00.540Z,-3.7
2022-12-18T10:30:00.621Z,-3.6
2022-12-18T10:40:00.540Z,-3.5
2022-12-18T10:50:00.549Z,-3.5
2022-12-18T11:00:00.543Z,-3.3
2022-12-18T11:10:00.566Z,-3.3
2022-12-18T11:20:00.528Z,-3.2
2022-12-18T11:30:00.627Z,-3.2
2022-12-18T11:40:00.560Z,-3.1
2022-12-18T11:50:00.557Z,-3.1
2022-12-18T12:00:00.549Z,-3.1
2022-12-18T12:10:00.547Z,-3.1
2022-12-18T12:20:00.547Z,-3.1
2022-12-18T12:30:00.609Z,-3.1
2022-12-18T12:40:04.547Z,-3.1
2022-12-18T12:50:00.524Z,-3.2
2022-12-18T13:00:00.522Z,-3.2
2022-12-18T13:10:00.544Z,-3.2
2022-12-18T13:20:00.567Z,-3.2
2022-12-18T13:30:00.583Z,-3.3
2022-12-18T13:40:00.562Z,-3.2
2022-12-18T13:50:00.536Z,-3.2
2022-12-18T14:00:00.617Z,-3.2
2022-12-18T14:10:18.915Z,-3.2
2022-12-18T14:20:00.575Z,-3.1
2022-12-18T14:30:00.613Z,-3.0
2022-12-18T14:40:02.271Z,-3.0
2022-12-18T14:50:00.555Z,-3.0
2022-12-18T15:00:00.568Z,-2.9
2022-12-18T15:10:00.523Z,-2.9
2022-12-18T15:20:00.659Z,-2.9
2022-12-18T15:30:00.627Z,-2.8
2022-12-18T15:40:00.533Z,-2.9
2022-12-18T15:50:00.528Z,-2.9
2022-12-18T16:00:00.543Z,-2.9
2022-12-18T16:10:02.277Z,-2.9
2022-12-18T16:20:00.847Z,-2.9
2022-12-18T16:30:00.673Z,-3.0
2022-12-18T16:40:00.530Z,-3.0
2022-12-18T16:50:00.661Z,-3.0
2022-12-18T17:00:04.969Z,-3.0
2022-12-18T17:10:00.522Z,-3.0
2022-12-18T17:20:01.031Z,-3.0
2022-12-18T17:30:00.614Z,-3.0
2022-12-18T17:40:00.579Z,-3.0
2022-12-18T17:50:00.572Z,-3.0
2022-12-18T18:00:00.543Z,-3.0
2022-12-18T18:10:00.538Z,-3.0
2022-12-18T18:20:00.551Z,-3.0
2022-12-18T18:30:00.549Z,-3.0
2022-12-18T18:40:00.603Z,-3.0
2022-12-18T18:50:00.552Z,-3.0
2022-12-18T19:00:00.575Z,-3.0
2022-12-18T19:10:04.317Z,-3.0
2022-12-18T19:20:00.538Z,-3.0
2022-12-18T19:30:00.541Z,-2.9
2022-12-18T19:40:00.539Z,-2.9
2022-12-18T19:50:00.899Z,-2.9
2022-12-18T20:00:00.571Z,-2.9
2022-12-18T20:10:07.088Z,-2.9
2022-12-18T20:20:00.552Z,-3.0
2022-12-18T20:30:00.566Z,-3.0
2022-12-18T20:40:00.554Z,-3.0
2022-12-18T20:50:00.555Z,-3.0
2022-12-18T21:00:00.834Z,-3.0
2022-12-18T21:10:00.547Z,-3.0
2022-12-18T21:20:00.549Z,-3.0
2022-12-18T21:30:00.595Z,-3.0
2022-12-18T21:40:00.540Z,-3.0
2022-12-18T21:50:00.559Z,-3.0
2022-12-18T22:00:00.760Z,-3.0
2022-12-18T22:10:00.897Z,-3.1
2022-12-18T22:20:00.610Z,-3.0
2022-12-18T22:30:00.621Z,-3.0
2022-12-18T22:40:03.038Z,-3.1
2022-12-18T22:50:00.616Z,-3.0
2022-12-18T23:00:00.580Z,-3.0
2022-12-18T23:10:00.917Z,-3.0
2022-12-18T23:20:00.605Z,-3.0
2022-12-18T23:30:00.567Z,-3.0
2022-12-18T23:40:00.580Z,-3.0
2022-12-18T23:50:00.587Z,-3.0
